createdAt,value
2022-12-23T00:00:58.532Z,99374.25
2022-12-23T00:03:01.441Z,99379.88
2022-12-23T00:05:04.524Z,99365.72
2022-12-23T00:07:09.424Z,99371.69
2022-12-23T00:09:12.260Z,99373.50
2022-12-23T00:11:15.620Z,99373.59
2022-12-23T00:13:37.195Z,99373.63
2022-12-23T00:15:40.034Z,99371.78
2022-12-23T00:17:43.525Z,99377.06
2022-12-23T00:19:48.530Z,99378.00
2022-12-23T00:21:51.301Z,99378.00
2022-12-23T00:23:55.353Z,99376.13
2022-12-23T00:25:58.147Z,99377.06
2022-12-23T00:28:02.297Z,99364.91
2022-12-23T00:30:06.600Z,99375.59
2022-12-23T00:32:12.230Z,99383.88
2022-12-23T00:34:15.450Z,99381.06
2022-12-23T00:36:19.051Z,99380.97
2022-12-23T00:38:42.824Z,99373.91
2022-12-23T00:41:11.453Z,99368.63
2022-12-23T00:43:13.659Z,99368.63
2022-12-23T00:45:19.222Z,99366.25
2022-12-23T00:47:39.472Z,99374.09
2022-12-23T00:49:45.134Z,99372.22
2022-12-23T00:51:48.215Z,99383.78
2022-12-23T00:53:50.900Z,99374.09
2022-12-23T00:55:56.586Z,99383.34
2022-12-23T00:57:59.548Z,99366.09
2022-12-23T01:00:02.274Z,99371.09
2022-12-23T01:02:22.667Z,99370.91
2022-12-23T01:04:43.056Z,99367.06
2022-12-23T01:06:46.167Z,99365.22
2022-12-23T01:08:49.537Z,99366.94
2022-12-23T01:10:52.444Z,99374.09
2022-12-23T01:13:01.486Z,99378.50
2022-12-23T01:15:04.287Z,99375.97
2022-12-23T01:17:07.478Z,99380.88
2022-12-23T01:19:10.401Z,99388.97
2022-12-23T01:21:13.350Z,99389.16
2022-12-23T01:23:16.198Z,99384.13
2022-12-23T01:25:19.191Z,99389.06
2022-12-23T01:27:22.056Z,99391.09
2022-12-23T01:29:26.708Z,99394.16
2022-12-23T01:31:30.258Z,99389.56
2022-12-23T01:33:35.300Z,99392.00
2022-12-23T01:35:37.981Z,99398.50
2022-12-23T01:37:40.611Z,99408.97
2022-12-23T01:39:43.816Z,99401.91
2022-12-23T01:42:04.021Z,99407.94
2022-12-23T01:44:21.699Z,99406.34
2022-12-23T01:46:26.006Z,99413.56
2022-12-23T01:48:29.059Z,99418.84
2022-12-23T01:50:32.864Z,99418.34
2022-12-23T01:52:36.220Z,99423.75
2022-12-23T01:54:39.005Z,99427.44
2022-12-23T01:56:41.734Z,99421.81
2022-12-23T01:58:44.983Z,99426.06
2022-12-23T02:01:05.190Z,99426.47
2022-12-23T02:03:26.586Z,99422.13
2022-12-23T02:05:29.391Z,99428.97
2022-12-23T02:07:50.033Z,99433.28
2022-12-23T02:09:52.801Z,99427.41
2022-12-23T02:12:14.230Z,99431.09
2022-12-23T02:14:36.925Z,99437.38
2022-12-23T02:16:42.029Z,99438.25
2022-12-23T02:18:56.336Z,99440.59
2022-12-23T02:21:03.391Z,99443.53
2022-12-23T02:23:18.573Z,99452.03
2022-12-23T02:25:29.552Z,99445.03
2022-12-23T02:27:32.386Z,99453.91
2022-12-23T02:30:08.226Z,99447.56
2022-12-23T02:32:13.092Z,99454.22
2022-12-23T02:34:17.107Z,99450.06
2022-12-23T02:36:22.547Z,99451.84
2022-12-23T02:38:27.460Z,99452.44
2022-12-23T02:40:32.945Z,99455.56
2022-12-23T02:42:36.551Z,99457.38
2022-12-23T02:44:41.151Z,99461.53
2022-12-23T02:46:45.408Z,99458.97
2022-12-23T02:48:50.454Z,99465.09
2022-12-23T02:50:53.599Z,99469.94
2022-12-23T02:52:56.661Z,99468.53
2022-12-23T02:55:00.216Z,99472.84
2022-12-23T02:57:03.889Z,99476.66
2022-12-23T02:59:07.887Z,99485.84
2022-12-23T03:01:10.623Z,99480.44
2022-12-23T03:03:13.420Z,99481.78
2022-12-23T03:05:28.634Z,99486.41
2022-12-23T03:07:31.880Z,99478.31
2022-12-23T03:09:36.085Z,99485.56
2022-12-23T03:11:41.404Z,99489.97
2022-12-23T03:13:50.041Z,99493.88
2022-12-23T03:15:53.564Z,99485.72
2022-12-23T03:17:59.779Z,99488.34
2022-12-23T03:20:04.273Z,99495.75
2022-12-23T03:22:09.892Z,99493.19
2022-12-23T03:24:16.293Z,99497.97
2022-12-23T03:26:20.103Z,99504.63
2022-12-23T03:28:24.465Z,99504.63
2022-12-23T03:30:27.202Z,99505.31
2022-12-23T03:32:30.773Z,99520.97
2022-12-23T03:34:34.734Z,99514.13
2022-12-23T03:36:38.402Z,99512.78
2022-12-23T03:38:42.688Z,99515.72
2022-12-23T03:40:46.898Z,99527.38
2022-12-23T03:42:52.060Z,99528.41
2022-12-23T03:45:27.870Z,99522.94
2022-12-23T03:47:18.433Z,99532.28
2022-12-23T03:49:21.606Z,99535.88
2022-12-23T03:51:24.977Z,99535.06
2022-12-23T03:53:28.862Z,99530.25
2022-12-23T03:55:33.194Z,99537.69
2022-12-23T03:57:36.186Z,99545.78
2022-12-23T03:59:39.479Z,99535.38
2022-12-23T04:01:43.751Z,99529.31
2022-12-23T04:03:49.311Z,99529.00
2022-12-23T04:05:53.395Z,99540.50
2022-12-23T04:07:57.527Z,99534.59
2022-12-23T04:10:00.303Z,99532.25
2022-12-23T04:12:04.547Z,99536.56
2022-12-23T04:14:08.016Z,99529.25
2022-12-23T04:16:10.881Z,99530.59
2022-12-23T04:18:13.661Z,99522.09
2022-12-23T04:20:16.651Z,99534.28
2022-12-23T04:22:19.303Z,99531.31
2022-12-23T04:24:21.975Z,99531.66
2022-12-23T04:26:24.722Z,99531.38
2022-12-23T04:28:28.842Z,99535.66
2022-12-23T04:30:34.697Z,99527.72
2022-12-23T04:32:37.777Z,99531.47
2022-12-23T04:34:40.479Z,99532.34
2022-12-23T04:36:43.248Z,99534.38
2022-12-23T04:38:45.865Z,99542.66
2022-12-23T04:40:48.552Z,99538.78
2022-12-23T04:42:51.385Z,99536.41
2022-12-23T04:44:55.614Z,99531.03
2022-12-23T04:46:58.371Z,99534.38
2022-12-23T04:49:01.090Z,99534.81
2022-12-23T04:51:04.104Z,99533.88
2022-12-23T04:53:06.825Z,99530.31
2022-12-23T04:55:10.026Z,99534.53
2022-12-23T04:57:12.679Z,99540.00
2022-12-23T04:59:15.512Z,99544.13
2022-12-23T05:01:19.568Z,99558.00
2022-12-23T05:03:22.302Z,99557.53
2022-12-23T05:05:25.057Z,99551.72
2022-12-23T05:07:27.753Z,99558.63
2022-12-23T05:09:30.840Z,99554.94
2022-12-23T05:11:38.547Z,99563.81
2022-12-23T05:13:44.890Z,99557.06
2022-12-23T05:15:47.705Z,99551.53
2022-12-23T05:17:53.215Z,99552.91
2022-12-23T05:19:57.002Z,99563.59
2022-12-23T05:22:02.085Z,99557.19
2022-12-23T05:24:05.086Z,99565.78
2022-12-23T05:26:08.214Z,99566.56
2022-12-23T05:28:10.869Z,99560.69
2022-12-23T05:30:16.308Z,99569.03
2022-12-23T05:32:19.327Z,99566.81
2022-12-23T05:34:23.461Z,99563.38
2022-12-23T05:36:26.130Z,99566.22
2022-12-23T05:38:28.977Z,99559.00
2022-12-23T05:40:35.175Z,99562.34
2022-12-23T05:42:38.266Z,99552.38
2022-12-23T05:44:41.264Z,99557.78
2022-12-23T05:46:44.255Z,99558.41
2022-12-23T05:48:47.027Z,99552.13
2022-12-23T05:50:52.124Z,99561.25
2022-12-23T05:52:55.843Z,99569.13
2022-12-23T05:54:58.520Z,99562.59
2022-12-23T05:57:01.311Z,99569.81
2022-12-23T05:59:04.071Z,99566.00
2022-12-23T06:01:06.918Z,99570.34
2022-12-23T06:03:09.912Z,99576.03
2022-12-23T06:05:15.342Z,99574.47
2022-12-23T06:07:19.836Z,99578.34
2022-12-23T06:09:22.564Z,99579.38
2022-12-23T06:11:25.301Z,99589.53
2022-12-23T06:13:28.069Z,99583.34
2022-12-23T06:15:30.850Z,99596.97
2022-12-23T06:17:33.959Z,99597.97
2022-12-23T06:19:36.766Z,99600.84
2022-12-23T06:21:39.812Z,99599.44
2022-12-23T06:23:46.315Z,99601.38
2022-12-23T06:25:49.575Z,99603.09
2022-12-23T06:27:54.201Z,99609.06
2022-12-23T06:29:57.354Z,99609.91
2022-12-23T06:32:02.346Z,99606.44
2022-12-23T06:34:05.381Z,99607.81
2022-12-23T06:36:09.559Z,99602.63
2022-12-23T06:38:12.557Z,99610.53
2022-12-23T06:40:16.787Z,99599.53
2022-12-23T06:42:19.489Z,99604.44
2022-12-23T06:44:23.404Z,99611.72
2022-12-23T06:46:26.302Z,99608.06
2022-12-23T06:48:29.246Z,99604.56
2022-12-23T06:50:34.391Z,99601.38
2022-12-23T06:52:37.111Z,99602.53
2022-12-23T06:54:39.805Z,99607.59
2022-12-23T06:56:43.941Z,99605.78
2022-12-23T06:58:47.053Z,99614.03
2022-12-23T07:00:49.875Z,99607.53
2022-12-23T07:02:54.194Z,99612.19
2022-12-23T07:04:57.138Z,99614.28
2022-12-23T07:06:59.840Z,99613.03
2022-12-23T07:09:04.656Z,99608.50
2022-12-23T07:11:08.633Z,99611.41
2022-12-23T07:13:13.088Z,99610.31
2022-12-23T07:15:15.792Z,99616.13
2022-12-23T07:17:18.566Z,99617.81
2022-12-23T07:19:21.211Z,99622.25
2022-12-23T07:21:28.896Z,99631.94
2022-12-23T07:23:34.950Z,99625.97
2022-12-23T07:25:37.721Z,99629.06
2022-12-23T07:27:40.598Z,99637.84
2022-12-23T07:29:44.623Z,99643.97
2022-12-23T07:31:47.775Z,99645.59
2022-12-23T07:33:50.518Z,99641.19
2022-12-23T07:35:53.880Z,99648.75
2022-12-23T07:37:56.865Z,99653.41
2022-12-23T07:40:06.546Z,99661.31
2022-12-23T07:44:33.905Z,99677.16
2022-12-23T07:46:38.212Z,99680.41
2022-12-23T07:48:41.450Z,99683.19
2022-12-23T07:50:44.141Z,99684.75
2022-12-23T07:52:47.096Z,99695.00
2022-12-23T07:54:49.884Z,99693.13
2022-12-23T07:56:52.703Z,99691.25
2022-12-23T07:58:58.537Z,99688.38
2022-12-23T08:01:02.439Z,99697.63
2022-12-23T08:03:06.792Z,99685.69
2022-12-23T08:05:10.084Z,99684.44
2022-12-23T08:07:15.195Z,99689.25
2022-12-23T08:09:19.160Z,99688.09
2022-12-23T08:11:23.424Z,99693.50
2022-12-23T08:13:26.307Z,99682.50
2022-12-23T08:15:29.170Z,99687.25
2022-12-23T08:17:32.421Z,99679.25
2022-12-23T08:19:36.807Z,99675.00
2022-12-23T08:21:39.597Z,99674.13
2022-12-23T08:23:44.351Z,99675.84
2022-12-23T08:25:47.111Z,99671.09
2022-12-23T08:27:50.045Z,99671.72
2022-12-23T08:29:53.328Z,99665.38
2022-12-23T08:31:56.203Z,99675.91
2022-12-23T08:33:59.772Z,99679.63
2022-12-23T08:36:04.171Z,99679.34
2022-12-23T08:38:07.456Z,99682.25
2022-12-23T08:40:10.648Z,99677.69
2022-12-23T08:42:13.530Z,99683.03
2022-12-23T08:44:17.743Z,99679.00
2022-12-23T08:46:20.641Z,99679.94
2022-12-23T08:48:23.452Z,99680.91
2022-12-23T08:50:26.520Z,99667.09
2022-12-23T08:52:30.604Z,99672.50
2022-12-23T08:54:33.855Z,99677.66
2022-12-23T08:56:37.744Z,99680.19
2022-12-23T08:58:40.991Z,99672.22
2022-12-23T09:00:43.756Z,99666.78
2022-12-23T09:02:46.725Z,99674.16
2022-12-23T09:04:49.660Z,99666.00
2022-12-23T09:06:53.880Z,99673.72
2022-12-23T09:08:58.812Z,99675.47
2022-12-23T09:11:01.639Z,99675.31
2022-12-23T09:13:04.430Z,99676.94
2022-12-23T09:15:07.877Z,99682.06
2022-12-23T09:17:10.705Z,99682.44
2022-12-23T09:19:13.617Z,99679.00
2022-12-23T09:21:16.934Z,99685.22
2022-12-23T09:23:20.073Z,99685.06
2022-12-23T09:25:24.203Z,99666.94
2022-12-23T09:27:27.081Z,99670.03
2022-12-23T09:29:30.104Z,99663.34
2022-12-23T09:31:37.697Z,99667.38
2022-12-23T09:33:41.357Z,99660.69
2022-12-23T09:35:44.360Z,99659.63
2022-12-23T09:37:47.173Z,99659.31
2022-12-23T09:39:49.841Z,99652.78
2022-12-23T09:42:01.894Z,99656.38
2022-12-23T09:44:13.060Z,99650.16
2022-12-23T09:46:16.650Z,99656.53
2022-12-23T09:48:20.380Z,99657.44
2022-12-23T09:50:25.598Z,99657.06
2022-12-23T09:52:31.924Z,99654.50
2022-12-23T09:54:36.313Z,99645.34
2022-12-23T09:56:40.744Z,99645.34
2022-12-23T09:58:46.981Z,99642.16
2022-12-23T10:00:52.881Z,99629.03
2022-12-23T10:03:01.052Z,99636.03
2022-12-23T10:05:04.915Z,99624.81
2022-12-23T10:07:12.271Z,99622.34
2022-12-23T10:09:15.103Z,99623.59
2022-12-23T10:11:18.457Z,99628.81
2022-12-23T10:13:26.339Z,99625.16
2022-12-23T10:15:32.243Z,99620.56
2022-12-23T10:17:36.194Z,99617.69
2022-12-23T10:19:41.861Z,99617.69
2022-12-23T10:21:47.830Z,99620.97
2022-12-23T10:23:52.094Z,99618.44
2022-12-23T10:25:54.957Z,99624.50
2022-12-23T10:27:58.028Z,99621.88
2022-12-23T10:30:20.029Z,99611.41
2022-12-23T10:32:28.323Z,99607.03
2022-12-23T10:34:38.424Z,99614.13
2022-12-23T10:36:43.335Z,99606.81
2022-12-23T10:38:51.738Z,99598.13
2022-12-23T10:40:56.123Z,99586.22
2022-12-23T10:43:00.022Z,99570.19
2022-12-23T10:45:07.531Z,99570.94
2022-12-23T10:47:12.620Z,99568.50
2022-12-23T10:49:20.221Z,99559.72
2022-12-23T10:51:25.018Z,99564.00
2022-12-23T10:53:31.577Z,99555.81
2022-12-23T10:55:34.897Z,99546.63
2022-12-23T10:57:38.984Z,99530.19
2022-12-23T10:59:41.761Z,99520.06
2022-12-23T11:01:45.521Z,99525.09
2022-12-23T11:03:50.370Z,99532.38
2022-12-23T11:05:55.127Z,99534.97
2022-12-23T11:07:58.132Z,99531.13
2022-12-23T11:10:01.232Z,99525.34
2022-12-23T11:12:04.875Z,99530.53
2022-12-23T11:14:07.658Z,99528.66
2022-12-23T11:16:18.114Z,99521.09
2022-12-23T11:18:22.518Z,99510.75
2022-12-23T11:20:25.583Z,99512.41
2022-12-23T11:22:29.731Z,99509.75
2022-12-23T11:24:37.989Z,99501.50
2022-12-23T11:26:45.851Z,99501.16
2022-12-23T11:28:49.562Z,99502.44
2022-12-23T11:30:56.497Z,99493.44
2022-12-23T11:33:00.235Z,99487.97
2022-12-23T11:35:05.221Z,99489.84
2022-12-23T11:37:08.216Z,99482.69
2022-12-23T11:39:21.534Z,99471.75
2022-12-23T11:41:30.328Z,99466.97
2022-12-23T11:43:33.796Z,99477.41
2022-12-23T11:45:38.681Z,99492.56
2022-12-23T11:47:42.129Z,99483.34
2022-12-23T11:49:48.884Z,99466.19
2022-12-23T11:52:01.047Z,99468.03
2022-12-23T11:54:04.762Z,99471.94
2022-12-23T11:56:10.733Z,99462.38
2022-12-23T11:58:17.429Z,99460.69
2022-12-23T12:00:21.987Z,99456.94
2022-12-23T12:02:30.959Z,99450.13
2022-12-23T12:04:35.891Z,99449.03
2022-12-23T12:06:43.229Z,99445.72
2022-12-23T12:08:46.159Z,99438.72
2022-12-23T12:10:51.272Z,99448.25
2022-12-23T12:12:57.372Z,99436.25
2022-12-23T12:15:00.759Z,99426.22
2022-12-23T12:17:04.892Z,99419.25
2022-12-23T12:19:10.849Z,99415.75
2022-12-23T12:21:14.993Z,99417.81
2022-12-23T12:23:18.869Z,99404.78
2022-12-23T12:25:22.488Z,99405.69
2022-12-23T12:27:27.006Z,99393.19
2022-12-23T12:29:32.151Z,99386.31
2022-12-23T12:31:35.617Z,99385.44
2022-12-23T12:33:39.969Z,99371.38
2022-12-23T12:35:43.465Z,99362.81
2022-12-23T12:37:46.664Z,99367.56
2022-12-23T12:39:51.214Z,99358.91
2022-12-23T12:42:01.631Z,99357.28
2022-12-23T12:44:13.724Z,99356.88
2022-12-23T12:46:22.430Z,99355.50
2022-12-23T12:48:30.639Z,99341.56
2022-12-23T12:50:34.639Z,99332.00
2022-12-23T12:52:39.397Z,99335.31
2022-12-23T12:54:44.357Z,99332.88
2022-12-23T12:56:48.305Z,99330.50
2022-12-23T12:58:51.532Z,99340.00
2022-12-23T13:00:58.080Z,99337.13
2022-12-23T13:03:09.492Z,99338.53
2022-12-23T13:05:18.438Z,99340.34
2022-12-23T13:07:23.767Z,99342.72
2022-12-23T13:09:27.718Z,99332.94
2022-12-23T13:11:32.584Z,99326.13
2022-12-23T13:13:37.229Z,99319.06
2022-12-23T13:15:42.027Z,99322.56
2022-12-23T13:17:45.801Z,99319.25
2022-12-23T13:19:51.987Z,99316.19
2022-12-23T13:21:55.957Z,99319.41
2022-12-23T13:24:04.089Z,99316.84
2022-12-23T13:26:10.601Z,99308.94
2022-12-23T13:28:17.804Z,99312.72
2022-12-23T13:30:21.707Z,99309.88
2022-12-23T13:32:29.365Z,99304.69
2022-12-23T13:34:34.850Z,99294.56
2022-12-23T13:36:43.997Z,99294.94
2022-12-23T13:38:51.031Z,99293.06
2022-12-23T13:40:57.753Z,99291.34
2022-12-23T13:43:01.449Z,99285.31
2022-12-23T13:45:04.471Z,99276.28
2022-12-23T13:47:10.597Z,99269.56
2022-12-23T13:49:17.069Z,99260.09
2022-12-23T13:51:21.405Z,99248.19
2022-12-23T13:53:26.693Z,99255.25
2022-12-23T13:55:36.079Z,99246.16
2022-12-23T13:57:49.364Z,99235.03
2022-12-23T14:00:04.915Z,99227.13
2022-12-23T14:02:48.208Z,99216.50
2022-12-23T14:04:58.761Z,99214.91
2022-12-23T14:07:03.421Z,99213.09
2022-12-23T14:09:07.590Z,99194.13
2022-12-23T14:11:13.054Z,99187.66
2022-12-23T14:13:15.883Z,99183.28
2022-12-23T14:15:24.944Z,99184.53
2022-12-23T14:17:28.823Z,99180.50
2022-12-23T14:19:35.585Z,99180.16
2022-12-23T14:21:44.588Z,99172.94
2022-12-23T14:23:51.033Z,99158.25
2022-12-23T14:25:58.036Z,99155.53
2022-12-23T14:28:02.313Z,99154.47
2022-12-23T14:30:08.525Z,99145.31
2022-12-23T14:32:19.479Z,99141.09
2022-12-23T14:34:30.214Z,99140.22
2022-12-23T14:36:33.194Z,99137.69
2022-12-23T14:38:36.184Z,99137.88
2022-12-23T14:40:48.496Z,99146.66
2022-12-23T14:42:58.631Z,99136.84
2022-12-23T14:45:17.111Z,99133.50
2022-12-23T14:47:47.285Z,99130.91
2022-12-23T14:49:50.126Z,99131.19
2022-12-23T14:51:53.315Z,99120.56
2022-12-23T14:54:12.282Z,99122.69
2022-12-23T14:56:22.788Z,99119.38
2022-12-23T14:58:32.714Z,99116.31
2022-12-23T15:00:45.744Z,99104.06
2022-12-23T15:02:48.565Z,99113.03
2022-12-23T15:04:53.413Z,99109.72
2022-12-23T15:06:57.391Z,99109.72
2022-12-23T15:09:00.155Z,99097.97
2022-12-23T15:11:02.830Z,99106.59
2022-12-23T15:13:06.566Z,99097.63
2022-12-23T15:15:16.966Z,99096.63
2022-12-23T15:17:25.738Z,99106.88
2022-12-23T15:19:29.822Z,99110.47
2022-12-23T15:21:33.507Z,99089.47
2022-12-23T15:23:36.468Z,99091.94
2022-12-23T15:25:40.861Z,99084.47
2022-12-23T15:27:44.419Z,99086.38
2022-12-23T15:29:48.845Z,99077.63
2022-12-23T15:31:53.639Z,99065.94
2022-12-23T15:34:06.095Z,99075.28
2022-12-23T15:36:11.719Z,99075.19
2022-12-23T15:38:18.139Z,99062.97
2022-12-23T15:40:36.281Z,99069.44
2022-12-23T15:42:47.832Z,99074.88
2022-12-23T15:44:51.239Z,99065.59
2022-12-23T15:46:58.220Z,99058.78
2022-12-23T15:49:04.797Z,99063.13
2022-12-23T15:51:11.287Z,99057.03
2022-12-23T15:53:15.946Z,99046.47
2022-12-23T15:55:24.411Z,99039.34
2022-12-23T15:57:29.035Z,99041.13
2022-12-23T15:59:33.200Z,99046.28
2022-12-23T16:01:41.636Z,99051.66
2022-12-23T16:03:55.859Z,99051.38
2022-12-23T16:06:06.883Z,99057.41
2022-12-23T16:08:28.989Z,99060.44
2022-12-23T16:10:39.490Z,99050.47
2022-12-23T16:12:42.834Z,99057.28
2022-12-23T16:14:50.922Z,99048.06
2022-12-23T16:16:53.916Z,99055.22
2022-12-23T16:18:58.176Z,99049.03
2022-12-23T16:21:04.316Z,99049.78
2022-12-23T16:23:07.477Z,99044.22
2022-12-23T16:25:11.132Z,99044.88
2022-12-23T16:27:14.897Z,99045.09
2022-12-23T16:29:18.053Z,99048.84
2022-12-23T16:31:22.759Z,99050.00
2022-12-23T16:33:32.989Z,99053.00
2022-12-23T16:35:38.534Z,99063.19
2022-12-23T16:37:45.844Z,99047.16
2022-12-23T16:39:50.324Z,99048.91
2022-12-23T16:41:53.106Z,99050.13
2022-12-23T16:43:59.256Z,99053.91
2022-12-23T16:46:03.625Z,99061.50
2022-12-23T16:48:10.315Z,99056.69
2022-12-23T16:50:14.304Z,99059.16
2022-12-23T16:52:18.970Z,99064.00
2022-12-23T16:54:22.082Z,99056.84
2022-12-23T16:56:25.417Z,99061.72
2022-12-23T16:58:28.717Z,99057.06
2022-12-23T17:00:31.909Z,99066.72
2022-12-23T17:02:35.844Z,99080.59
2022-12-23T17:04:40.617Z,99068.09
2022-12-23T17:06:46.765Z,99059.97
2022-12-23T17:08:55.329Z,99067.91
2022-12-23T17:25:49.166Z,99108.28
